Corwin Springs, Montana
Current Conditions -  °F | °C
As of 6:53 PM on Friday 24 Oct 2014 (Local Time) from KLVM Reporting Station
Overcast Overcast  
Wind Chill: 53°   Ceiling: 10000
Heat Index: 53°   Visibility: 10mi
Dew Point: 39°   Wind: 9mph
Humidity: 59%   Direction: 240°WSW
Pressure: 30.08"   Gusts: NA
Location:  45.0924°N, 110.236°W
Report Text: KLVM 250053Z AUTO 24008KT 10SM OVC100 12/04 A3008 RMK AO2 SLP165 T01170039
Loading
Personal Weather Stations






























Interactive Weather Map
Tropical Storm Tracking
New forecast layout! Learn more

10-Day Weather Forecast

Advertisements
Track Severe Weather on mobile